Morocco, IN (47963)

12:30 PM CDT on June 02, 2015 (GMT -0500)
KINMOROC2 | | Change Station
CLOSE
Current Station
Personal Weather Station
Location: Morocco, IN
Elevation: 685 ft
Nearby Weather Stations
Active Advisory: Flood Warning, Flood Advisory

Elev 685 ft 41.02 °N, 87.45 °W | Updated 12 minutes ago

Clear
Clear
66.6 °F
Feels Like 66.6 °F
N
4.0
Wind Variable Wind from East
Gusts 11.0 mph

Today
High -- | Low -- °F
--% Chance of Precip.
Yesterday
High -- | Low -- °F
Precip. -- in
5:19 AM 8:16 PM
Full, 100% visible
Pressure 30.16 in
Visibility 10.0 miles
Clouds Clear
Dew Point 52 °F
Humidity 60%
Rainfall 0.00 in
Snow Depth Not available.
UV 12 out of 12
Pollen 7.90 out of 12
Air Quality Not available.
Flu Activity No Activity
METAR KRZL 021715Z AUTO 05010G14KT 10SM CLR 18/12 A3016 RMK AO2

More Conditions Fewer Conditions

Pressure 30.16 in
Visibility 10.0 miles
Clouds Clear
Dew Point 52 °F
Humidity 60%
Rainfall 0.00 in
Snow Depth Not available.
UV 12 out of 12
Pollen 7.90 out of 12
Air Quality Not available.
Flu Activity No Activity
METAR KRZL 021715Z AUTO 05010G14KT 10SM CLR 18/12 A3016 RMK AO2

More Conditions Fewer Conditions

10-Day Weather Forecast

Almanac

Astronomy

Jun. 02, 2015 Rise Set
Actual Time
Civil Twilight
Nautical Twilight
Astronomical Twilight
Moon
Length of Visible Light
Length of Day
Tomorrow will be .
, % of the Moon is Illuminated

Today's Extremes

State Highs State Lows

Community

WunderPhotos

Upload Photos

1,825,986 photos uploaded!

WunderBlogs® & News

Nearby

Air Quality

  Air Quality AQ Index Pollutant
Not available.

Snow Depth

Station Depth Elevation

Earthquake Activity

City Distance Mag. Time & Date
Minimum magnitude displayed is 2.5.

Coastal Water Temperatures

Place Temperature

Stations

Nearby Weather Stations

Station Location Temp. Windchill Dew Point Humidity Wind Precip. Elev Updated Type
                   
Flood Warning
Statement as of 8:56 AM CDT on June 02, 2015

The Flood Warning continues for
the Kankakee River at Shelby.
* Until Sunday morning.
* At 745 am Tuesday the stage was 9.6 feet.
* Flood stage is 9.0 feet.
* Minor flooding is occurring and minor flooding is forecast.
* Forecast... the river will continue rising to near 9.9 feet by
Wednesday evening. The river will fall below flood stage early
Sunday morning.
* Impact... at 10.0 feet... flooding affects County and local roads.
Wildwood Estates and Sumava Resorts begin to experience some
flooding.


Lat... Lon 4127 8727 4121 8756 4111 8753 4118 8722





Flood Advisory
Statement as of 9:09 AM CDT on June 02, 2015

The Flood Advisory continues for
the Iroquois river near Foresman
* until Wednesday afternoon.
* At 845 am Tuesday the stage was 15.6 feet.
* Action stage is 15.0 feet.
* Flood stage is 18.0 feet.
* Forecast... the river will remain near 15.6 feet through this
afternoon then recede below action stage Wednesday morning.


Lat... Lon 4094 8727 4086 8749 4077 8746 4085 8723